Huvudsida
METAR-TAF:

METAR-TAF

Flygplatser :

Gregorio Luperóns internationella flygplats

Puerto Plata, Dominikanska republiken

latitud: 19-45N, longitud: 070-33W, höjd: 15 m

Aktuellt väderrapport

Denna rapport gjordes för 1 timme och 7 minuter sedan, klockan 15:00 UTC
Vind 6 kt från nordost
Temperatur 28°C
Fuktighet 79%
Tryck
Sikt: 1017 m
Spridda moln på en höjd av 2500 ft

METAR: MDPP 181500Z 04006KT 9999 SCT025 28/24 1017

Tid: 12:07 (16:07 UTC)

Väderprognos

Denna rapport gjordes för 6 timmar och 7 minuter sedan, klockan 10:00 UTC
Prognos gäller från 18 kl. 12 UTC till 19 kl. 12 UTC
Vind kt från nord
Sikt 10 km eller mer
Få moln på en höjd av 1700 ft
Spridda moln på en höjd av 30000 ft
Blir
från 18 kl. 13 UTC till 18 kl. 15 UTC
Vind 12 kt från syd
Spridda moln på en höjd av 2500 ft

TAF: MDPP 181000Z 1812/1912 00000KT 9999 FEW017 SCT300 BECMG 1813/1815 18012KT SCT025

Aktuella väderrapporter och prognoser från 4000 flygplatser (METAR- och TAF-rapporter).

De tillgängliga stationerna syns som gula och röda prickar på kartan.

För musen över prickarna för att se namnen på stationerna.

Klicka sedan för att få väderrapporter och prognoser.

För att ändra kartan: Klicka på de gröna knapparna med ett svart kors på för att zooma in; den gröna knappen med ett streck på för att zooma ut; eller på de gröna pilarna för angränsande kartor.


METAR-TAF: